Time;durP1;ratioP1;P1;durP2;ratioP2;P2;SDS_P1;SDS_P2;PMS_P1;PMS_P2;Temp;Humidity;BMP_temperature;BMP_pressure;BME280_temperature;BME280_humidity;BME280_pressure;Samples;Min_cycle;Max_cycle;Signal;HPM_P1;HPM_P2
2021/06/20 00:02:04;;;;;;;7.78;5.75;;;;;;;16.56;65.21;100422.78;4915641;29;20079;-38
2021/06/20 00:04:32;;;;;;;6.65;5.82;;;;;;;16.50;65.66;100413.13;4913805;29;20092;-39
2021/06/20 00:06:59;;;;;;;9.07;6.85;;;;;;;16.49;65.71;100412.34;4915318;29;20044;-39
2021/06/20 00:09:26;;;;;;;8.48;5.45;;;;;;;16.54;65.59;100414.00;4915377;29;20052;-39
2021/06/20 00:11:53;;;;;;;7.20;5.38;;;;;;;16.57;65.59;100411.22;4915486;29;20536;-38
2021/06/20 00:14:20;;;;;;;6.65;5.63;;;;;;;16.62;65.62;100399.66;4914913;29;20562;-39
2021/06/20 00:16:46;;;;;;;8.15;5.65;;;;;;;16.62;65.66;100398.84;4912381;29;20470;-39
2021/06/20 00:19:14;;;;;;;9.30;6.00;;;;;;;16.58;65.97;100393.22;4909120;29;20558;-39
2021/06/20 00:21:41;;;;;;;9.77;5.63;;;;;;;16.55;65.99;100393.25;4898378;29;20126;-39
2021/06/20 00:24:08;;;;;;;6.45;5.85;;;;;;;16.52;66.15;100388.41;4914386;29;20111;-39
2021/06/20 00:26:34;;;;;;;8.50;5.47;;;;;;;16.52;66.39;100382.81;4913593;29;20044;-39
2021/06/20 00:29:02;;;;;;;5.35;4.85;;;;;;;16.56;66.36;100372.47;4915461;29;20040;-39
2021/06/20 00:31:30;;;;;;;9.90;6.03;;;;;;;16.52;66.46;100380.03;4915153;29;20513;-39
2021/06/20 00:33:57;;;;;;;7.18;5.47;;;;;;;16.47;66.57;100386.00;4915049;29;20043;-38
2021/06/20 00:36:24;;;;;;;7.80;4.88;;;;;;;16.45;66.79;100383.56;4914597;29;20541;-39
2021/06/20 00:38:51;;;;;;;10.20;5.43;;;;;;;16.48;66.76;100382.00;4914941;29;20086;-39
2021/06/20 00:41:17;;;;;;;6.80;4.82;;;;;;;16.49;66.73;100372.41;4915386;29;20509;-39
2021/06/20 00:43:44;;;;;;;5.53;4.95;;;;;;;16.43;66.83;100370.00;4912718;29;20146;-41
2021/06/20 00:46:11;;;;;;;5.53;4.97;;;;;;;16.44;67.15;100363.22;4914669;29;20494;-39
2021/06/20 00:48:38;;;;;;;9.35;4.78;;;;;;;16.38;67.11;100364.00;4912244;29;20047;-39
2021/06/20 00:51:06;;;;;;;5.68;4.13;;;;;;;16.33;67.33;100369.97;4914365;29;20056;-38
2021/06/20 00:53:34;;;;;;;5.13;4.63;;;;;;;16.34;67.50;100363.97;4915059;29;20052;-39
2021/06/20 00:56:02;;;;;;;6.63;5.13;;;;;;;16.40;67.04;100362.41;4914766;29;20052;-38
2021/06/20 00:58:28;;;;;;;6.97;5.28;;;;;;;16.36;67.03;100364.38;4914529;29;20494;-42
2021/06/20 01:00:55;;;;;;;7.80;5.30;;;;;;;16.32;67.43;100351.59;4915454;29;20059;-39
2021/06/20 01:03:22;;;;;;;10.95;6.88;;;;;;;16.37;67.20;100354.00;4913891;29;20040;-38
2021/06/20 01:05:49;;;;;;;6.90;5.28;;;;;;;16.35;67.27;100350.81;4914632;29;20124;-38
2021/06/20 01:08:16;;;;;;;8.63;6.32;;;;;;;16.35;67.70;100346.03;4915089;29;20048;-39
2021/06/20 01:10:43;;;;;;;7.45;5.97;;;;;;;16.40;67.33;100351.22;4914425;29;20139;-38
2021/06/20 01:13:14;;;;;;;7.05;5.40;;;;;;;16.45;67.52;100350.84;4914778;29;20084;-38
2021/06/20 01:15:43;;;;;;;7.28;6.05;;;;;;;16.49;67.32;100344.47;4916477;29;20439;-39
2021/06/20 01:18:11;;;;;;;10.65;7.25;;;;;;;16.42;67.43;100348.03;4913257;29;20131;-39
2021/06/20 01:20:38;;;;;;;7.22;6.22;;;;;;;16.34;67.45;100340.81;4917939;29;20059;-39
2021/06/20 01:23:06;;;;;;;8.02;6.32;;;;;;;16.22;67.86;100336.41;4917601;29;20071;-39
2021/06/20 01:25:37;;;;;;;7.82;5.50;;;;;;;16.13;68.23;100344.34;4917874;29;20127;-43
2021/06/20 01:28:09;;;;;;;6.03;5.47;;;;;;;16.09;68.12;100340.75;4916723;29;20127;-39
2021/06/20 01:30:42;;;;;;;9.40;7.35;;;;;;;16.04;68.51;100334.72;4918250;29;20087;-38
2021/06/20 01:33:11;;;;;;;7.28;5.82;;;;;;;15.94;68.63;100330.69;4895461;29;20048;-41
2021/06/20 01:35:39;;;;;;;7.82;5.93;;;;;;;15.90;68.72;100335.44;4907280;29;20075;-38
2021/06/20 01:38:08;;;;;;;9.90;7.15;;;;;;;15.87;68.76;100333.44;4917656;29;20111;-39
2021/06/20 01:40:35;;;;;;;25.73;16.33;;;;;;;15.83;68.86;100330.63;4912811;29;20135;-39
2021/06/20 01:43:02;;;;;;;14.05;7.43;;;;;;;15.84;68.86;100325.84;4917654;29;20107;-39
2021/06/20 01:45:30;;;;;;;10.55;7.95;;;;;;;15.85;68.69;100333.03;4917652;29;20075;-39
2021/06/20 01:47:59;;;;;;;8.95;7.20;;;;;;;15.83;68.92;100319.44;4917798;29;20079;-39
2021/06/20 01:50:27;;;;;;;7.93;6.53;;;;;;;15.86;68.81;100322.69;4917603;29;20040;-39
2021/06/20 01:53:06;;;;;;;8.75;6.95;;;;;;;15.85;69.31;100313.50;4917096;29;20127;-39
2021/06/20 01:55:34;;;;;;;8.65;6.38;;;;;;;15.84;69.11;100323.06;4917760;29;20083;-38
2021/06/20 01:58:02;;;;;;;8.77;6.35;;;;;;;15.82;68.84;100317.06;4917517;29;20059;-39
2021/06/20 02:00:29;;;;;;;9.55;7.30;;;;;;;15.82;69.03;100319.84;4905503;29;20048;-39
2021/06/20 02:02:55;;;;;;;9.90;6.78;;;;;;;15.77;69.23;100318.25;4917519;29;20088;-38
2021/06/20 02:05:25;;;;;;;10.13;7.20;;;;;;;15.74;69.31;100309.84;4910120;29;20104;-39
2021/06/20 02:07:52;;;;;;;10.15;6.35;;;;;;;15.77;69.26;100309.06;4913119;29;20079;-39
2021/06/20 02:10:20;;;;;;;11.95;7.13;;;;;;;15.83;69.20;100307.50;4917912;29;20079;-39
2021/06/20 02:12:47;;;;;;;8.30;6.50;;;;;;;15.80;69.32;100303.50;4917168;29;20086;-38
2021/06/20 02:15:16;;;;;;;8.50;6.75;;;;;;;15.80;69.23;100308.28;4917488;29;20058;-39
2021/06/20 02:17:44;;;;;;;9.10;7.25;;;;;;;15.80;69.39;100303.50;4911710;29;20462;-39
2021/06/20 02:20:14;;;;;;;10.57;6.50;;;;;;;15.78;69.43;100305.88;4915239;29;20462;-39
2021/06/20 02:22:42;;;;;;;7.05;5.38;;;;;;;15.80;69.29;100294.34;4917215;29;20044;-39
2021/06/20 02:25:11;;;;;;;7.32;5.38;;;;;;;15.77;69.38;100292.31;4916855;29;20128;-39
2021/06/20 02:27:39;;;;;;;7.68;5.50;;;;;;;15.81;69.23;100304.28;4917432;29;20044;-39
2021/06/20 02:30:08;;;;;;;11.63;7.13;;;;;;;15.83;68.99;100307.50;4916066;29;20091;-38
2021/06/20 02:32:35;;;;;;;7.95;5.75;;;;;;;15.77;69.08;100306.28;4911943;29;20050;-39
2021/06/20 02:35:03;;;;;;;7.32;5.15;;;;;;;15.76;69.20;100299.88;4904673;29;20052;-39
2021/06/20 02:37:33;;;;;;;6.53;5.93;;;;;;;15.76;69.26;100301.88;4916983;29;20127;-39
2021/06/20 02:40:00;;;;;;;7.88;6.20;;;;;;;15.77;69.27;100303.47;4916744;29;20086;-39
2021/06/20 02:42:27;;;;;;;10.23;6.60;;;;;;;15.78;69.36;100302.28;4916847;29;20127;-39
2021/06/20 02:44:54;;;;;;;8.30;6.45;;;;;;;15.78;69.18;100303.06;4921145;29;20147;-38
2021/06/20 02:47:23;;;;;;;7.43;5.10;;;;;;;15.75;69.49;100311.44;4916536;29;20082;-39
2021/06/20 02:49:50;;;;;;;7.18;5.82;;;;;;;15.77;69.30;100309.06;4916518;29;20052;-38
2021/06/20 02:52:18;;;;;;;10.98;5.70;;;;;;;15.73;69.33;100308.22;4916378;29;20123;-39
2021/06/20 02:54:49;;;;;;;6.47;5.50;;;;;;;15.73;69.58;100308.22;4916315;29;20130;-39
2021/06/20 02:57:24;;;;;;;8.68;5.75;;;;;;;15.73;69.43;100303.44;4916327;29;20096;-39
2021/06/20 02:59:52;;;;;;;7.82;5.78;;;;;;;15.73;69.46;100302.66;4916539;29;20051;-38
2021/06/20 03:02:20;;;;;;;9.80;6.43;;;;;;;15.78;69.61;100300.28;4916566;29;20131;-38
2021/06/20 03:04:48;;;;;;;10.00;7.32;;;;;;;15.75;69.31;100297.50;4929531;29;20570;-38
2021/06/20 03:07:15;;;;;;;7.07;6.38;;;;;;;15.74;69.22;100288.31;4916075;29;20549;-39
2021/06/20 03:09:42;;;;;;;7.53;6.40;;;;;;;15.76;69.46;100290.72;4921396;29;20048;-39
2021/06/20 03:12:10;;;;;;;8.50;7.15;;;;;;;15.71;69.42;100282.72;4915937;29;20048;-39
2021/06/20 03:14:39;;;;;;;8.27;5.55;;;;;;;15.72;69.40;100295.47;4915170;29;20048;-39
2021/06/20 03:17:07;;;;;;;10.90;6.82;;;;;;;15.70;69.23;100298.66;4899344;29;20092;-39
2021/06/20 03:19:35;;;;;;;11.98;6.45;;;;;;;15.68;69.50;100294.66;4909741;29;20502;-39
2021/06/20 03:22:03;;;;;;;8.68;6.03;;;;;;;15.68;69.57;100300.22;4915463;29;20036;-38
2021/06/20 03:24:36;;;;;;;8.73;6.95;;;;;;;15.71;69.41;100300.25;4914551;29;20072;-39
2021/06/20 03:27:05;;;;;;;9.60;6.05;;;;;;;15.72;69.48;100301.06;4902620;29;20043;-39
2021/06/20 03:29:31;;;;;;;13.90;6.80;;;;;;;15.70;69.52;100289.50;4915586;29;20521;-38
2021/06/20 03:31:59;;;;;;;6.97;6.20;;;;;;;15.68;69.49;100292.66;4915740;29;20155;-40
2021/06/20 03:34:27;;;;;;;10.55;5.53;;;;;;;15.66;69.74;100291.47;4916187;29;20071;-39
2021/06/20 03:36:54;;;;;;;7.43;6.40;;;;;;;15.69;69.62;100290.69;4915491;29;20095;-39
2021/06/20 03:39:21;;;;;;;7.97;5.85;;;;;;;15.68;69.52;100291.84;4914841;29;20493;-39
2021/06/20 03:41:48;;;;;;;5.70;4.95;;;;;;;15.62;69.61;100290.66;4915967;29;20055;-39
2021/06/20 03:44:15;;;;;;;6.53;5.25;;;;;;;15.62;69.61;100296.22;4914725;29;20044;-39
2021/06/20 03:46:41;;;;;;;7.93;5.03;;;;;;;15.57;69.74;100299.38;4915622;29;20052;-39
2021/06/20 03:49:08;;;;;;;6.05;5.15;;;;;;;15.54;69.75;100294.59;4915435;29;20091;-38
2021/06/20 03:51:35;;;;;;;8.40;5.28;;;;;;;15.52;69.74;100308.09;4919790;29;20107;-38
2021/06/20 03:54:02;;;;;;;6.80;4.43;;;;;;;15.54;69.79;100302.97;4917429;29;20079;-38
2021/06/20 03:56:29;;;;;;;7.35;5.70;;;;;;;15.56;69.83;100304.16;4915363;29;20068;-38
2021/06/20 03:58:57;;;;;;;8.80;5.18;;;;;;;15.52;69.96;100308.09;4915281;29;20082;-39
2021/06/20 04:01:24;;;;;;;10.02;6.00;;;;;;;15.49;70.21;100308.91;4915260;29;20134;-39
2021/06/20 04:03:51;;;;;;;9.20;5.53;;;;;;;15.47;70.29;100305.69;4915502;29;20394;-39
2021/06/20 04:06:18;;;;;;;8.18;5.32;;;;;;;15.47;70.28;100300.91;4914020;29;20079;-40
2021/06/20 04:08:44;;;;;;;5.80;5.07;;;;;;;15.55;69.97;100310.94;4915195;29;20075;-38
2021/06/20 04:11:11;;;;;;;6.40;5.70;;;;;;;15.53;69.97;100316.09;4913860;29;20056;-39
2021/06/20 04:13:38;;;;;;;9.43;5.80;;;;;;;15.52;70.15;100310.91;4913325;29;20107;-39
2021/06/20 04:16:05;;;;;;;7.03;4.72;;;;;;;15.55;70.11;100315.69;4915086;29;20130;-39
2021/06/20 04:18:32;;;;;;;6.45;4.18;;;;;;;15.53;69.99;100316.09;4908858;29;20052;-38
2021/06/20 04:20:59;;;;;;;4.38;3.65;;;;;;;15.56;69.93;100325.69;4904821;29;20086;-38
2021/06/20 04:23:25;;;;;;;5.75;5.00;;;;;;;15.58;69.88;100328.88;4909352;29;20040;-39
2021/06/20 04:25:52;;;;;;;7.18;4.18;;;;;;;15.61;69.74;100323.31;4899343;29;20056;-39
2021/06/20 04:28:21;;;;;;;7.03;4.93;;;;;;;15.61;69.66;100330.91;4914607;29;20056;-39
2021/06/20 04:30:53;;;;;;;5.95;4.45;;;;;;;15.61;69.95;100331.69;4915400;29;20376;-39
2021/06/20 04:33:21;;;;;;;7.68;4.53;;;;;;;15.64;69.74;100344.06;4914422;29;20052;-39
2021/06/20 04:35:50;;;;;;;7.72;4.97;;;;;;;15.63;69.70;100348.84;4914920;29;20052;-39
2021/06/20 04:38:18;;;;;;;6.40;5.03;;;;;;;15.63;69.94;100346.06;4914669;29;20136;-39
2021/06/20 04:40:49;;;;;;;7.22;4.60;;;;;;;15.62;69.86;100340.88;4915161;29;20126;-39
2021/06/20 04:46:19;;;;;;;5.35;4.20;;;;;;;15.65;69.87;100354.84;4887146;29;20059;-39
2021/06/20 04:48:47;;;;;;;8.10;5.50;;;;;;;15.70;69.77;100345.31;4913925;29;20578;-39
2021/06/20 04:51:13;;;;;;;7.28;5.50;;;;;;;15.71;69.66;100347.72;4917778;29;20068;-39
2021/06/20 04:53:40;;;;;;;6.15;4.65;;;;;;;15.72;69.93;100351.31;4918191;29;20160;-39
2021/06/20 04:56:07;;;;;;;7.85;5.28;;;;;;;15.71;69.82;100360.84;4918244;29;20048;-38
2021/06/20 04:58:34;;;;;;;7.60;4.90;;;;;;;15.76;69.98;100352.91;4918111;29;20119;-39
2021/06/20 05:01:01;;;;;;;5.95;4.35;;;;;;;15.80;69.84;100356.56;4921678;29;20052;-38
2021/06/20 05:03:28;;;;;;;6.20;4.65;;;;;;;15.82;69.77;100351.38;4918666;29;20054;-38
2021/06/20 05:05:55;;;;;;;6.38;4.97;;;;;;;15.84;69.80;100359.34;4918658;29;20155;-38
2021/06/20 05:08:22;;;;;;;8.77;5.65;;;;;;;15.87;69.85;100354.97;4905531;29;20046;-38
2021/06/20 05:10:52;;;;;;;10.70;6.97;;;;;;;15.90;70.00;100354.19;4918056;29;20056;-39
2021/06/20 05:13:23;;;;;;;12.00;6.95;;;;;;;15.91;69.78;100359.41;4918006;29;20134;-39
2021/06/20 05:15:49;;;;;;;13.20;6.30;;;;;;;15.92;69.76;100360.97;4919143;29;20095;-39
2021/06/20 05:18:16;;;;;;;8.00;7.03;;;;;;;15.93;69.86;100357.00;4914087;29;20122;-39
2021/06/20 05:20:43;;;;;;;11.80;7.18;;;;;;;15.96;69.99;100367.41;4917552;29;20135;-39
2021/06/20 05:23:11;;;;;;;11.10;7.53;;;;;;;15.96;69.59;100361.81;4917659;29;20119;-39
2021/06/20 05:25:38;;;;;;;12.20;7.03;;;;;;;15.95;69.85;100370.56;4917898;29;20099;-39
2021/06/20 05:28:05;;;;;;;6.63;5.90;;;;;;;15.94;69.95;100374.56;4918026;29;20064;-39
2021/06/20 05:30:32;;;;;;;8.50;6.43;;;;;;;15.95;70.04;100376.97;4918180;29;20040;-39
2021/06/20 05:32:59;;;;;;;8.23;6.47;;;;;;;15.96;69.82;100378.56;4919826;29;20078;-39
2021/06/20 05:35:26;;;;;;;10.15;6.15;;;;;;;15.95;69.73;100376.97;4918894;29;20150;-39
2021/06/20 05:37:52;;;;;;;8.27;6.30;;;;;;;15.98;69.38;100383.75;4917695;29;20149;-38
2021/06/20 05:40:19;;;;;;;12.23;6.68;;;;;;;15.99;69.44;100383.34;4917898;29;20071;-38
2021/06/20 05:42:46;;;;;;;7.45;6.55;;;;;;;15.96;69.52;100378.56;4906550;29;20108;-39
2021/06/20 05:45:13;;;;;;;6.00;5.45;;;;;;;15.97;69.75;100380.16;4903896;29;20136;-39
2021/06/20 05:47:43;;;;;;;6.35;5.50;;;;;;;15.96;69.52;100378.56;4918010;29;20044;-39
2021/06/20 05:50:11;;;;;;;9.95;7.30;;;;;;;15.96;69.74;100381.38;4917647;29;20099;-39
2021/06/20 05:52:38;;;;;;;11.05;6.30;;;;;;;15.97;69.78;100374.56;4917668;29;20464;-39
2021/06/20 05:55:06;;;;;;;8.18;6.28;;;;;;;15.99;69.93;100374.19;4917174;29;20131;-39
2021/06/20 05:57:33;;;;;;;7.40;5.78;;;;;;;15.98;69.93;100376.19;4917526;29;20044;-38
2021/06/20 06:00:00;;;;;;;10.57;6.38;;;;;;;15.99;70.05;100377.75;4917419;29;20044;-39
2021/06/20 06:02:28;;;;;;;8.30;6.57;;;;;;;16.03;70.06;100383.38;4916993;29;20040;-39
2021/06/20 06:04:54;;;;;;;6.55;5.82;;;;;;;16.07;70.16;100376.63;4908355;29;20386;-38
2021/06/20 06:07:21;;;;;;;8.73;6.47;;;;;;;16.17;70.13;100373.09;4924267;29;20048;-39
2021/06/20 06:09:48;;;;;;;11.73;8.27;;;;;;;16.34;70.15;100383.53;4917623;29;20131;-39
2021/06/20 06:12:16;;;;;;;9.88;6.15;;;;;;;16.45;70.28;100377.97;4917552;29;20148;-39
2021/06/20 06:14:42;;;;;;;11.43;6.80;;;;;;;16.61;70.25;100381.28;4917089;29;20044;-39
2021/06/20 06:17:09;;;;;;;8.48;5.88;;;;;;;16.70;70.17;100383.69;4914339;29;20049;-39
2021/06/20 06:19:36;;;;;;;9.48;6.53;;;;;;;16.79;70.18;100392.50;4912600;29;20076;-39
2021/06/20 06:22:03;;;;;;;9.02;5.60;;;;;;;16.92;70.13;100385.31;4917071;29;20119;-38
2021/06/20 06:24:30;;;;;;;8.27;5.90;;;;;;;17.09;69.88;100383.75;4924491;29;20044;-39
2021/06/20 06:26:57;;;;;;;7.05;5.03;;;;;;;17.21;69.57;100386.97;4916213;29;20118;-39
2021/06/20 06:29:24;;;;;;;7.05;6.35;;;;;;;17.24;69.32;100383.38;4915749;29;20048;-39
2021/06/20 06:31:51;;;;;;;8.98;5.50;;;;;;;17.19;68.95;100378.19;4916325;29;20076;-39
2021/06/20 06:34:20;;;;;;;6.10;4.93;;;;;;;17.23;68.97;100381.78;4916822;29;20056;-39
2021/06/20 06:36:46;;;;;;;6.43;4.93;;;;;;;17.34;68.96;100379.78;4916810;29;20071;-39
2021/06/20 06:39:13;;;;;;;8.63;3.65;;;;;;;17.45;68.63;100380.56;4926440;29;20064;-39
2021/06/20 06:41:40;;;;;;;3.90;3.58;;;;;;;17.48;68.17;100392.97;4923592;29;20051;-39
2021/06/20 06:44:07;;;;;;;5.85;3.72;;;;;;;17.51;67.70;100390.19;4917072;29;20040;-39
2021/06/20 06:46:34;;;;;;;3.30;3.00;;;;;;;17.65;67.46;100386.59;4916409;29;20051;-39
2021/06/20 06:49:01;;;;;;;4.20;2.40;;;;;;;17.71;66.73;100387.00;4916017;29;20047;-39
2021/06/20 06:51:28;;;;;;;4.90;3.13;;;;;;;17.80;66.35;100381.78;4916389;29;20456;-39
2021/06/20 06:53:55;;;;;;;3.22;2.95;;;;;;;17.92;66.03;100382.16;4916284;29;20079;-39
2021/06/20 06:56:22;;;;;;;3.28;2.63;;;;;;;18.08;65.68;100393.72;4916185;29;20044;-39
2021/06/20 06:58:49;;;;;;;6.00;3.03;;;;;;;18.20;65.12;100398.09;4925215;29;20134;-39
2021/06/20 07:01:16;;;;;;;8.38;3.25;;;;;;;18.27;64.97;100398.06;4917765;29;20044;-39
2021/06/20 07:03:43;;;;;;;5.35;3.45;;;;;;;18.31;64.92;100404.47;4916624;29;20051;-39
2021/06/20 07:06:11;;;;;;;9.18;3.47;;;;;;;18.28;64.63;100399.66;4916163;29;20852;-39
2021/06/20 07:08:38;;;;;;;2.65;2.45;;;;;;;18.16;64.50;100402.91;4915291;29;20119;-39
2021/06/20 07:11:06;;;;;;;5.93;3.00;;;;;;;18.05;64.47;100402.13;4915082;29;20148;-39
2021/06/20 07:13:33;;;;;;;4.82;3.03;;;;;;;18.00;64.54;100400.53;4915004;29;20127;-39
2021/06/20 07:16:00;;;;;;;4.00;2.60;;;;;;;17.98;64.66;100402.94;4925650;29;20074;-39
2021/06/20 07:18:26;;;;;;;7.13;3.63;;;;;;;18.02;64.84;100402.94;4907929;29;20119;-39
2021/06/20 07:20:54;;;;;;;4.90;2.75;;;;;;;18.08;64.79;100406.94;4915105;29;20143;-39
2021/06/20 07:23:20;;;;;;;5.07;2.88;;;;;;;18.14;64.67;100414.50;4903019;29;20108;-39
2021/06/20 07:25:47;;;;;;;5.28;2.53;;;;;;;18.19;64.66;100408.50;4915670;29;20082;-39
2021/06/20 07:28:15;;;;;;;4.65;2.92;;;;;;;18.25;64.41;100406.06;4916056;29;20052;-39
2021/06/20 07:30:42;;;;;;;4.95;2.50;;;;;;;18.30;64.47;100402.84;4913686;29;20130;-38
2021/06/20 07:33:09;;;;;;;3.60;2.85;;;;;;;18.36;64.35;100406.84;4916201;29;20663;-39
2021/06/20 07:35:35;;;;;;;6.25;3.13;;;;;;;18.37;64.41;100414.06;4915909;29;20072;-38
2021/06/20 07:38:02;;;;;;;6.75;3.15;;;;;;;18.39;64.35;100417.25;4915737;29;20051;-39
2021/06/20 07:40:29;;;;;;;6.80;2.80;;;;;;;18.42;63.94;100419.25;4915557;29;20048;-39
2021/06/20 07:42:56;;;;;;;6.07;3.15;;;;;;;18.56;64.04;100413.59;4915376;29;20072;-39
2021/06/20 07:45:23;;;;;;;13.93;5.25;;;;;;;18.77;63.96;100413.50;4897766;29;20079;-39
2021/06/20 07:47:52;;;;;;;11.43;4.38;;;;;;;18.93;63.75;100415.03;4913738;29;20059;-39
2021/06/20 07:50:19;;;;;;;5.03;2.80;;;;;;;18.93;63.42;100406.63;4924051;29;20079;-39
2021/06/20 07:52:46;;;;;;;5.97;3.15;;;;;;;18.95;63.04;100409.78;4913644;29;20076;-39
2021/06/20 07:55:13;;;;;;;6.85;3.35;;;;;;;19.00;62.85;100404.56;4915025;29;20442;-39
2021/06/20 07:57:40;;;;;;;11.88;4.93;;;;;;;18.89;62.69;100405.81;4915241;29;20059;-40
2021/06/20 08:00:08;;;;;;;7.70;3.20;;;;;;;18.84;62.64;100404.25;4915642;29;20151;-39
2021/06/20 08:02:36;;;;;;;9.82;4.20;;;;;;;18.79;62.58;100407.50;4915241;29;20664;-39
2021/06/20 08:05:05;;;;;;;12.23;3.80;;;;;;;18.80;62.32;100412.69;4915173;29;20098;-39
2021/06/20 08:07:33;;;;;;;6.57;3.38;;;;;;;18.81;62.54;100410.66;4917469;29;20052;-38
2021/06/20 08:09:59;;;;;;;7.53;3.53;;;;;;;18.82;62.39;100407.44;4914633;29;20937;-39
2021/06/20 08:12:28;;;;;;;7.40;2.92;;;;;;;18.84;62.38;100407.84;4915349;29;20079;-39
2021/06/20 08:14:56;;;;;;;6.80;3.40;;;;;;;18.79;62.19;100410.28;4914206;29;20059;-39
2021/06/20 08:17:24;;;;;;;8.57;3.97;;;;;;;18.72;62.18;100411.13;4911819;29;20044;-39
2021/06/20 08:19:51;;;;;;;8.18;3.72;;;;;;;18.72;62.19;100408.31;4909243;29;20057;-39
2021/06/20 08:22:18;;;;;;;7.00;3.38;;;;;;;18.68;62.00;100409.53;4914396;29;20044;-40
2021/06/20 08:24:46;;;;;;;8.57;4.20;;;;;;;18.65;62.12;100413.97;4916434;29;20494;-38
2021/06/20 08:27:13;;;;;;;9.77;4.40;;;;;;;18.63;62.19;100410.78;4914870;29;20099;-39
2021/06/20 08:29:43;;;;;;;7.28;3.90;;;;;;;18.78;62.06;100417.91;4914735;29;20048;-39
2021/06/20 08:32:12;;;;;;;7.60;4.47;;;;;;;18.83;61.86;100414.66;4914674;29;20140;-39
2021/06/20 08:34:39;;;;;;;10.13;3.47;;;;;;;18.90;62.11;100415.84;4914941;29;20068;-39
2021/06/20 08:37:05;;;;;;;7.95;4.65;;;;;;;18.95;61.81;100412.59;4914472;29;20091;-39
2021/06/20 08:39:32;;;;;;;6.32;4.25;;;;;;;19.05;61.86;100415.34;4914558;29;20209;-39
2021/06/20 08:41:59;;;;;;;9.65;4.45;;;;;;;19.31;61.71;100416.75;4915343;29;20044;-39
2021/06/20 08:44:29;;;;;;;9.05;4.40;;;;;;;19.77;61.79;100410.81;4915174;29;20079;-39
2021/06/20 08:46:57;;;;;;;8.63;4.40;;;;;;;19.99;60.88;100415.78;4914303;29;20490;-39
2021/06/20 08:49:26;;;;;;;7.97;4.78;;;;;;;20.08;60.50;100414.50;4914543;29;20054;-39
2021/06/20 08:51:55;;;;;;;9.95;3.78;;;;;;;20.23;59.84;100421.56;4917011;29;20044;-39
2021/06/20 08:54:23;;;;;;;6.82;3.78;;;;;;;20.67;59.34;100427.09;4914519;29;20206;-39
2021/06/20 08:56:51;;;;;;;9.23;3.53;;;;;;;21.32;58.87;100430.63;4915782;29;20059;-39
2021/06/20 08:59:19;;;;;;;5.60;3.60;;;;;;;21.74;57.51;100429.94;4919323;29;20541;-40
2021/06/20 09:01:47;;;;;;;8.32;4.68;;;;;;;21.67;56.67;100422.41;4914368;29;20068;-40
2021/06/20 09:04:29;;;;;;;6.93;3.17;;;;;;;21.47;55.95;100424.34;4914003;29;20083;-39
2021/06/20 09:06:59;;;;;;;6.80;4.45;;;;;;;21.46;55.73;100425.56;4900585;29;20443;-39
2021/06/20 09:09:28;;;;;;;7.05;3.30;;;;;;;21.96;55.61;100419.09;4914227;29;20131;-39
2021/06/20 09:12:12;;;;;;;4.70;2.72;;;;;;;22.48;54.33;100419.34;4914974;29;20131;-39
2021/06/20 09:14:51;;;;;;;6.50;3.00;;;;;;;22.85;52.58;100413.31;4920390;29;20489;-39
2021/06/20 09:17:28;;;;;;;11.43;3.30;;;;;;;23.35;52.42;100413.75;4914680;29;20048;-40
2021/06/20 09:19:59;;;;;;;7.50;2.88;;;;;;;23.47;51.54;100413.09;4914495;29;20126;-40
2021/06/20 09:22:28;;;;;;;10.75;2.92;;;;;;;23.54;51.30;100427.03;4914964;29;20047;-40
2021/06/20 09:25:11;;;;;;;6.93;3.10;;;;;;;23.74;48.86;100434.63;4914022;29;20044;-39
2021/06/20 09:27:38;;;;;;;4.70;3.03;;;;;;;23.59;50.48;100425.72;4894268;29;20072;-40
2021/06/20 09:30:07;;;;;;;5.72;2.95;;;;;;;23.95;49.94;100434.09;4911237;29;20820;-40
2021/06/20 09:32:34;;;;;;;8.85;3.25;;;;;;;24.20;49.18;100428.59;4920177;29;20070;-39
2021/06/20 09:35:04;;;;;;;5.80;2.88;;;;;;;24.46;48.90;100435.16;4914271;29;20075;-40
2021/06/20 09:37:31;;;;;;;8.07;3.08;;;;;;;24.41;48.47;100427.22;4916824;29;20410;-40
2021/06/20 09:39:58;;;;;;;6.90;2.47;;;;;;;24.36;47.94;100431.38;4917952;29;20142;-41
2021/06/20 09:42:25;;;;;;;7.15;2.83;;;;;;;24.39;47.93;100430.47;4917967;29;20036;-40
2021/06/20 09:44:57;;;;;;;5.25;2.40;;;;;;;23.97;47.79;100432.41;4917614;29;20521;-41
2021/06/20 09:47:26;;;;;;;5.93;2.65;;;;;;;23.85;47.56;100438.00;4917038;29;20103;-40
2021/06/20 09:49:55;;;;;;;5.95;2.97;;;;;;;23.51;47.71;100444.88;4922913;29;20050;-40
2021/06/20 09:52:30;;;;;;;5.85;3.10;;;;;;;22.62;47.99;100453.69;4917537;29;20123;-39
2021/06/20 09:55:00;;;;;;;7.47;2.92;;;;;;;22.32;49.13;100443.38;4916673;29;20048;-39
2021/06/20 09:57:27;;;;;;;5.95;3.28;;;;;;;22.11;49.67;100446.59;4917440;29;20138;-43
2021/06/20 10:00:05;;;;;;;10.05;3.03;;;;;;;21.61;50.13;100451.47;4917468;29;20118;-39
2021/06/20 10:02:39;;;;;;;5.60;3.13;;;;;;;21.21;50.72;100445.66;4916392;29;20692;-39
2021/06/20 10:05:08;;;;;;;7.43;3.45;;;;;;;21.16;50.80;100450.97;4914192;29;20405;-39
2021/06/20 10:07:35;;;;;;;7.10;3.10;;;;;;;21.22;51.04;100444.44;4917215;29;20143;-39
2021/06/20 10:10:05;;;;;;;6.13;3.05;;;;;;;21.27;51.44;100450.81;4913699;29;20442;-39
2021/06/20 10:12:32;;;;;;;9.35;2.90;;;;;;;21.61;51.24;100451.47;4913742;29;20036;-39
2021/06/20 10:15:00;;;;;;;10.85;3.50;;;;;;;21.89;51.23;100451.06;4916723;29;20048;-39
2021/06/20 10:17:39;;;;;;;5.97;2.70;;;;;;;21.87;50.67;100456.31;4912246;29;20127;-39
2021/06/20 10:20:09;;;;;;;5.35;2.30;;;;;;;21.86;51.05;100460.38;4918637;29;20048;-38
2021/06/20 10:22:39;;;;;;;7.88;3.22;;;;;;;21.76;50.41;100461.31;4922655;29;20051;-40
2021/06/20 10:25:11;;;;;;;5.03;3.55;;;;;;;21.83;50.54;100462.00;4907675;29;20085;-39
2021/06/20 10:27:45;;;;;;;5.72;3.30;;;;;;;21.91;50.29;100465.50;4908212;29;20062;-40
2021/06/20 10:30:20;;;;;;;8.20;3.17;;;;;;;22.11;50.08;100460.72;4903916;29;20048;-42
2021/06/20 10:32:50;;;;;;;9.55;3.58;;;;;;;22.15;49.71;100475.56;4913628;29;20061;-41
2021/06/20 10:35:23;;;;;;;5.35;3.45;;;;;;;21.66;50.00;100467.91;4914900;29;20048;-41
2021/06/20 10:37:52;;;;;;;7.40;3.28;;;;;;;21.60;50.48;100478.09;4913889;29;20040;-41
2021/06/20 10:40:24;;;;;;;7.53;4.22;;;;;;;21.75;50.34;100476.63;4915352;29;20047;-41
2021/06/20 10:42:53;;;;;;;5.25;2.58;;;;;;;21.77;50.16;100479.81;4915746;29;20147;-42
2021/06/20 10:45:37;;;;;;;5.07;3.65;;;;;;;21.53;49.69;100478.16;4906162;29;20059;-42
2021/06/20 10:48:28;;;;;;;6.15;2.80;;;;;;;21.35;49.88;100483.28;4913040;29;20042;-46
2021/06/20 10:50:58;;;;;;;4.63;3.03;;;;;;;21.08;50.88;100478.44;4912428;29;20087;-46
2021/06/20 10:53:27;;;;;;;9.05;3.03;;;;;;;20.95;50.94;100485.81;4914216;29;20047;-41
2021/06/20 10:55:58;;;;;;;5.13;2.45;;;;;;;21.04;51.69;100476.88;4914975;29;20394;-41
2021/06/20 10:58:30;;;;;;;6.25;2.90;;;;;;;21.14;51.45;100482.38;4915023;29;20107;-41
2021/06/20 11:01:06;;;;;;;;;;;;;;;21.21;51.46;100490.72;4918960;29;20450;-41
2021/06/20 11:03:33;;;;;;;7.95;2.50;;;;;;;21.32;51.57;100492.56;4924973;29;20026;-41
2021/06/20 11:06:06;;;;;;;6.90;3.50;;;;;;;21.36;51.06;100494.13;4909460;29;20835;-43
2021/06/20 11:08:35;;;;;;;7.95;3.17;;;;;;;21.38;51.23;100502.16;4918870;29;20123;-41
2021/06/20 11:11:13;;;;;;;8.57;3.53;;;;;;;21.35;51.22;100497.38;4896982;29;20059;-46
2021/06/20 11:13:42;;;;;;;6.63;2.65;;;;;;;21.30;51.07;100495.03;4920619;29;20557;-45
2021/06/20 11:16:13;;;;;;;5.75;3.00;;;;;;;20.85;51.22;100498.00;4911675;29;20469;-41
2021/06/20 11:18:41;;;;;;;5.95;2.92;;;;;;;20.62;51.69;100503.53;4915286;29;20048;-41
2021/06/20 11:21:09;;;;;;;6.18;2.70;;;;;;;20.53;51.84;100500.41;4903061;29;20248;-42
2021/06/20 11:23:40;;;;;;;8.05;2.47;;;;;;;20.69;52.17;100506.25;4918140;29;20055;-42
2021/06/20 11:26:07;;;;;;;4.65;2.40;;;;;;;20.91;51.71;100501.16;4910876;29;20052;-41
2021/06/20 11:28:34;;;;;;;3.40;2.85;;;;;;;20.87;51.35;100506.03;4914682;29;20048;-41
2021/06/20 11:31:08;;;;;;;4.95;2.53;;;;;;;20.76;51.02;100506.16;4923074;29;20131;-42
2021/06/20 11:33:36;;;;;;;2.83;2.15;;;;;;;20.46;51.74;100500.47;4915647;29;20044;-41